Mesa, AZ

4:53 AM MST on August 27, 2014 (GMT -0700)
Northeast Mesa | Change Station
CLOSE
Current Station
Personal Weather Station
Location: Mesa, AZ
Elevation: 1345 ft
Nearby Weather Stations

Elev 1345 ft 33.44 °N, 111.74 °W | Updated 1 minute ago

Clear
Clear
79.4 °F
Feels Like 81 °F
N
0.0
Wind Variable Wind from SE
Gusts 2.0 mph

Today
High -- | Low -- °F
--% Chance of Precip.
Yesterday
High -- | Low -- °F
Precip. -- in
5:57 AM 6:58 PM
Waxing Crescent, 3% visible
Pressure 30.01 in
Visibility 10.0 miles
Clouds Clear
Heat Index 81 °F
Dew Point 61 °F
Humidity 54%
Rainfall 0.00 in
Snow Depth Not available.
UV 0 out of 12
Pollen 5.00 out of 12
PM2.5 Good
Flu Activity Not available.
METAR KIWA 271135Z AUTO 00000KT 10SM CLR 26/18 A3001 RMK AO2

More Conditions Fewer Conditions

Pressure 30.01 in
Visibility 10.0 miles
Clouds Clear
Heat Index 81 °F
Dew Point 61 °F
Humidity 54%
Rainfall 0.00 in
Snow Depth Not available.
UV 0 out of 12
Pollen 5.00 out of 12
PM2.5 Good
Flu Activity Not available.
METAR KIWA 271135Z AUTO 00000KT 10SM CLR 26/18 A3001 RMK AO2

More Conditions Fewer Conditions

10-Day Weather Forecast

Almanac

Astronomy

Aug. 27, 2014 Rise Set
Actual Time 5:57 AM MST 6:58 PM MST
Civil Twilight 5:32 AM MST 7:24 PM MST
Nautical Twilight 5:01 AM MST 7:54 PM MST
Astronomical Twilight 4:30 AM MST 8:25 PM MST
Moon 7:49 AM MST 8:01 PM MST
Length of Visible Light 13h 52m
Length of Day
13h 00m
Tomorrow will be 1m 56s shorter.
Waxing Crescent, 3% of the Moon is Illuminated
Today
Waxing Crescent
Sep 2
First Quarter
Sep 8
Full
Sep 15
Last Quarter
Sep 24
New

Today's Extremes

State Highs State Lows

Community

WunderPhotos

Upload Photos

1,747,670 photos uploaded!

Nearby

Air Quality

  Air Quality AQ Index Pollutant
Yesterday Good
OZONE
Yesterday Good
PM10
Current Good
PM2.5
Wednesday Moderate
OZONE
Wednesday Good
PM10
Wednesday Good
CO
Thursday Moderate
OZONE
Thursday Good
PM10
Thursday Good
CO

Snow Depth

Station Depth Elevation
Workman Creek 1 in 6900 ft
Promontory 0 in 7930 ft
Happy Jack 0 in 7630 ft
White Horse Lake 0 in 7180 ft
Wildcat 0 in 7850 ft

Earthquake Activity

City Distance Mag. Time & Date
No recent earthquake activity has been reported nearby.
Minimum magnitude displayed is 2.5.

Coastal Water Temperatures

Place Temperature
No Stations Reporting

Nearby Weather Stations